Time;durP1;ratioP1;P1;durP2;ratioP2;P2;SDS_P1;SDS_P2;PMS_P1;PMS_P2;Temp;Humidity;BMP_temperature;BMP_pressure;BME280_temperature;BME280_humidity;BME280_pressure;Samples;Min_cycle;Max_cycle;Signal;HPM_P1;HPM_P2
2023/03/31 00:00:28;;;;;;;6.57;3.15;;;;;;;10.77;100.00;97846.91;4184318;28;20329;-49
2023/03/31 00:02:29;;;;;;;5.30;2.05;;;;;;;10.76;100.00;97846.09;4169887;28;20287;-50
2023/03/31 00:04:31;;;;;;;4.88;1.77;;;;;;;10.82;100.00;97847.75;4151828;28;20243;-49
2023/03/31 00:06:36;;;;;;;9.15;1.77;;;;;;;10.84;100.00;97845.59;4168572;28;20203;-49
2023/03/31 00:08:39;;;;;;;8.75;2.10;;;;;;;10.89;100.00;97832.72;4170955;28;20729;-49
2023/03/31 00:10:45;;;;;;;5.25;2.08;;;;;;;10.85;100.00;97826.13;4154259;28;20687;-48
2023/03/31 00:12:47;;;;;;;7.63;2.17;;;;;;;10.90;100.00;97833.56;4175908;28;20238;-50
2023/03/31 00:14:48;;;;;;;6.25;1.70;;;;;;;10.91;100.00;97835.22;4169692;28;20577;-47
2023/03/31 00:16:50;;;;;;;7.00;1.92;;;;;;;10.97;100.00;97823.19;4155116;28;20703;-48
2023/03/31 00:18:52;;;;;;;6.88;2.13;;;;;;;10.97;100.00;97829.47;4174008;28;20642;-48
2023/03/31 00:20:56;;;;;;;5.43;1.88;;;;;;;11.05;100.00;97817.19;4170359;28;20211;-48
2023/03/31 00:23:00;;;;;;;6.88;1.75;;;;;;;10.99;100.00;97816.34;4166887;28;20209;-48
2023/03/31 00:25:02;;;;;;;3.42;2.03;;;;;;;11.02;100.00;97815.81;4202403;28;20258;-48
2023/03/31 00:27:04;;;;;;;3.83;1.60;;;;;;;11.05;100.00;97812.50;4171208;28;20698;-48
2023/03/31 00:29:08;;;;;;;5.00;1.67;;;;;;;11.05;100.00;97804.31;4109617;28;1787496;-49
2023/03/31 00:31:10;;;;;;;5.85;2.20;;;;;;;11.09;100.00;97804.56;4173868;28;20713;-48
2023/03/31 00:33:12;;;;;;;4.00;1.92;;;;;;;11.12;100.00;97796.66;4189619;28;20294;-48
2023/03/31 00:35:14;;;;;;;6.72;2.10;;;;;;;11.10;100.00;97790.63;4170781;28;21308;-47
2023/03/31 00:37:16;;;;;;;2.97;1.65;;;;;;;11.10;100.00;97790.63;4171048;28;20211;-48
2023/03/31 00:39:18;;;;;;;6.55;1.60;;;;;;;11.08;100.00;97778.31;4168648;28;20600;-48
2023/03/31 00:41:20;;;;;;;8.23;2.42;;;;;;;11.05;100.00;97776.91;4171451;28;20231;-48
2023/03/31 00:43:31;;;;;;;6.25;2.10;;;;;;;11.11;100.00;97770.38;4170546;28;20235;-48
2023/03/31 00:45:33;;;;;;;4.22;1.55;;;;;;;11.06;100.00;97762.16;4185193;28;20272;-48
2023/03/31 00:47:34;;;;;;;4.05;1.40;;;;;;;11.02;100.00;97766.53;4171767;28;20236;-50
2023/03/31 00:49:48;;;;;;;5.43;2.45;;;;;;;11.01;100.00;97770.38;4197926;28;21638;-48
2023/03/31 00:51:52;;;;;;;4.68;1.70;;;;;;;11.06;100.00;97766.81;4170281;28;20251;-48
2023/03/31 00:54:03;;;;;;;6.63;1.40;;;;;;;10.96;100.00;97761.28;4173087;28;20239;-48
2023/03/31 00:56:08;;;;;;;5.18;1.55;;;;;;;11.00;100.00;97770.63;4156339;28;20228;-48
2023/03/31 00:58:13;;;;;;;7.65;1.90;;;;;;;11.02;100.00;97765.69;4172247;28;20605;-49
2023/03/31 01:00:15;;;;;;;4.28;1.95;;;;;;;11.02;100.00;97761.06;4164809;28;20232;-48
2023/03/31 01:02:19;;;;;;;5.53;1.60;;;;;;;10.91;100.00;97764.84;4163543;28;20253;-48
2023/03/31 01:04:21;;;;;;;5.40;1.52;;;;;;;11.01;100.00;97764.06;4172477;28;20235;-49
2023/03/31 01:06:24;;;;;;;7.20;2.58;;;;;;;10.91;100.00;97759.38;4169988;28;20238;-48
2023/03/31 01:08:26;;;;;;;6.25;1.75;;;;;;;11.00;100.00;97748.72;4199116;28;20215;-48
2023/03/31 01:10:28;;;;;;;7.80;2.40;;;;;;;11.05;100.00;97746.81;4165973;28;20246;-48
2023/03/31 01:12:32;;;;;;;6.10;2.10;;;;;;;10.98;100.00;97739.97;4170703;28;20240;-48
2023/03/31 01:14:34;;;;;;;6.65;1.90;;;;;;;10.99;100.00;97738.88;4171199;28;20631;-48
2023/03/31 01:16:38;;;;;;;7.10;1.92;;;;;;;11.05;100.00;97733.13;4185650;28;20219;-48
2023/03/31 01:18:45;;;;;;;2.97;1.95;;;;;;;11.00;100.00;97724.94;4184066;28;20262;-49
2023/03/31 01:20:52;;;;;;;10.90;2.35;;;;;;;10.96;100.00;97723.81;4165651;28;20659;-49
2023/03/31 01:23:10;;;;;;;3.53;1.83;;;;;;;10.97;100.00;97711.75;4183929;28;20290;-48
2023/03/31 01:26:00;;;;;;;6.22;1.92;;;;;;;10.96;100.00;97707.38;4184327;28;20245;-49
2023/03/31 01:28:16;;;;;;;7.70;2.47;;;;;;;10.88;100.00;97699.72;4161138;28;20211;-49
2023/03/31 01:30:36;;;;;;;7.25;2.15;;;;;;;10.87;100.00;97710.13;4168272;28;20378;-49
2023/03/31 01:32:54;;;;;;;9.80;1.95;;;;;;;10.88;100.00;97703.56;4168366;28;20219;-48
2023/03/31 01:35:36;;;;;;;5.05;1.65;;;;;;;10.81;100.00;97703.00;4156316;28;20267;-49
2023/03/31 01:38:16;;;;;;;4.60;1.58;;;;;;;10.84;100.00;97693.13;4129916;28;20646;-49
2023/03/31 01:40:21;;;;;;;8.02;2.10;;;;;;;10.73;100.00;97689.81;4167125;28;20254;-48
2023/03/31 01:42:39;;;;;;;4.80;2.00;;;;;;;10.76;100.00;97686.56;4166461;28;20207;-49
2023/03/31 01:44:54;;;;;;;4.40;1.80;;;;;;;10.71;100.00;97686.56;4182113;28;20208;-49
2023/03/31 01:47:17;;;;;;;9.65;1.95;;;;;;;10.69;100.00;97684.06;4166974;28;20242;-49
2023/03/31 01:49:46;;;;;;;4.53;2.03;;;;;;;10.64;100.00;97680.53;4187521;28;20204;-49
2023/03/31 01:51:55;;;;;;;3.95;1.92;;;;;;;10.59;100.00;97669.56;4166288;28;20236;-49
2023/03/31 01:54:26;;;;;;;9.30;2.42;;;;;;;10.52;100.00;97663.53;4168090;28;20216;-48
2023/03/31 01:59:58;;;;;;;5.50;1.83;;;;;;;10.48;100.00;97644.09;4163069;28;20629;-48
2023/03/31 02:02:06;;;;;;;5.28;2.38;;;;;;;10.46;100.00;97642.72;4167922;28;20298;-48
2023/03/31 02:04:14;;;;;;;13.38;2.40;;;;;;;10.43;100.00;97632.34;4166877;28;20218;-47
2023/03/31 02:06:20;;;;;;;4.85;1.98;;;;;;;10.33;100.00;97645.97;4158861;28;20865;-48
2023/03/31 02:08:28;;;;;;;4.25;1.75;;;;;;;10.29;100.00;97633.97;4170241;28;20220;-48
2023/03/31 02:10:30;;;;;;;7.15;2.53;;;;;;;10.30;100.00;97619.19;4167753;28;20212;-47
2023/03/31 02:12:33;;;;;;;7.20;2.10;;;;;;;10.25;100.00;97621.91;4170583;28;20299;-48
2023/03/31 02:14:37;;;;;;;3.13;1.77;;;;;;;10.17;100.00;97625.16;4168657;28;20294;-48
2023/03/31 02:16:46;;;;;;;9.13;2.03;;;;;;;10.20;100.00;97613.69;4168423;28;20236;-48
2023/03/31 02:18:48;;;;;;;5.07;2.30;;;;;;;10.17;100.00;97597.84;4170279;28;20199;-48
2023/03/31 02:20:51;;;;;;;6.60;2.00;;;;;;;10.21;100.00;97596.22;4151487;28;20646;-47
2023/03/31 02:22:55;;;;;;;6.80;1.98;;;;;;;10.15;100.00;97586.34;4173161;28;20200;-48
2023/03/31 02:24:57;;;;;;;11.30;2.88;;;;;;;10.08;100.00;97580.31;4173509;28;20235;-48
2023/03/31 02:27:14;;;;;;;6.93;2.53;;;;;;;10.07;100.00;97568.56;4171972;28;20760;-48
2023/03/31 02:29:15;;;;;;;6.65;1.98;;;;;;;10.05;100.00;97559.81;4174392;28;20239;-48
2023/03/31 02:31:54;;;;;;;3.40;2.00;;;;;;;10.10;100.00;97561.72;4165853;28;20212;-47
2023/03/31 02:33:56;;;;;;;3.35;1.55;;;;;;;10.05;100.00;97557.09;4184938;28;20633;-49
2023/03/31 02:35:58;;;;;;;17.60;2.25;;;;;;;10.01;100.00;97545.00;4184494;28;20254;-48
2023/03/31 02:38:01;;;;;;;7.32;2.60;;;;;;;10.07;100.00;97551.34;4165487;28;20636;-47
2023/03/31 02:40:09;;;;;;;5.00;1.88;;;;;;;10.01;100.00;97545.00;4183673;28;20302;-48
2023/03/31 02:42:11;;;;;;;8.30;2.40;;;;;;;9.95;100.00;97528.88;4199376;28;20237;-48
2023/03/31 02:44:13;;;;;;;7.25;2.22;;;;;;;9.95;100.00;97520.69;4174285;28;21206;-48
2023/03/31 02:46:15;;;;;;;7.13;2.45;;;;;;;10.00;100.00;97526.97;4168923;28;20777;-48
2023/03/31 02:48:20;;;;;;;6.95;1.38;;;;;;;9.96;100.00;97523.13;4183568;28;20203;-47
2023/03/31 02:50:23;;;;;;;5.53;1.45;;;;;;;10.01;100.00;97527.81;4197873;28;20213;-48
2023/03/31 02:52:51;;;;;;;5.57;1.60;;;;;;;10.00;100.00;97520.69;4198848;28;20230;-48
2023/03/31 02:55:11;;;;;;;5.10;1.48;;;;;;;9.99;100.00;97514.41;4167219;28;20710;-48
2023/03/31 02:57:17;;;;;;;2.45;1.30;;;;;;;9.92;100.00;97505.66;4165299;28;20201;-48
2023/03/31 02:59:47;;;;;;;4.78;1.30;;;;;;;9.93;100.00;97498.25;4167487;28;20220;-48
2023/03/31 03:01:49;;;;;;;2.28;1.10;;;;;;;9.93;100.00;97487.31;4167536;28;20301;-48
2023/03/31 03:04:24;;;;;;;4.57;1.67;;;;;;;9.90;100.00;97463.28;4165747;28;20234;-49
2023/03/31 03:07:01;;;;;;;4.03;1.67;;;;;;;9.83;100.00;97449.06;4166660;28;20265;-48
2023/03/31 03:09:07;;;;;;;2.45;1.25;;;;;;;9.79;100.00;97421.47;4125424;28;20231;-48
2023/03/31 03:11:20;;;;;;;3.33;1.55;;;;;;;9.76;100.00;97418.47;4168177;28;20215;-49
2023/03/31 03:13:26;;;;;;;6.00;2.22;;;;;;;9.76;100.00;97419.28;4171473;28;20231;-48
2023/03/31 03:15:43;;;;;;;4.40;2.20;;;;;;;9.83;100.00;97416.28;4172968;28;20279;-48
2023/03/31 03:17:46;;;;;;;18.45;1.98;;;;;;;9.75;100.00;97409.44;4171005;28;21319;-48
2023/03/31 03:19:57;;;;;;;5.38;1.30;;;;;;;9.72;100.00;97410.00;4196346;28;20234;-48
2023/03/31 03:21:59;;;;;;;2.70;2.28;;;;;;;9.79;100.00;97404.25;4168974;28;20216;-48
2023/03/31 03:24:01;;;;;;;6.07;1.58;;;;;;;9.73;100.00;97380.75;4154363;28;20327;-48
2023/03/31 03:26:02;;;;;;;6.65;1.70;;;;;;;9.76;100.00;97367.38;4168122;28;20263;-49
2023/03/31 03:28:06;;;;;;;6.57;1.40;;;;;;;9.73;100.00;97353.44;4167590;28;20715;-48
2023/03/31 03:30:10;;;;;;;4.07;1.95;;;;;;;9.75;100.00;97348.53;4189502;28;20278;-48
2023/03/31 03:32:12;;;;;;;1.83;1.55;;;;;;;9.79;100.00;97360.56;4170369;28;20299;-48
2023/03/31 03:34:13;;;;;;;1.60;1.38;;;;;;;9.85;100.00;97371.22;4188563;28;20254;-48
2023/03/31 03:36:15;;;;;;;3.40;1.50;;;;;;;9.84;100.00;97363.28;4173725;28;20581;-48
2023/03/31 03:38:17;;;;;;;2.97;1.40;;;;;;;9.87;100.00;97362.75;4169049;28;20208;-48
2023/03/31 03:40:19;;;;;;;7.35;1.40;;;;;;;9.88;100.00;97376.13;4173634;28;20314;-48
2023/03/31 03:42:20;;;;;;;2.65;1.25;;;;;;;9.94;100.00;97369.56;4168842;28;20911;-48
2023/03/31 03:44:22;;;;;;;5.22;1.88;;;;;;;9.78;100.00;97361.66;4170577;28;20304;-48
2023/03/31 03:46:24;;;;;;;4.82;1.70;;;;;;;9.83;100.00;97358.91;4199130;28;20577;-49
2023/03/31 03:48:26;;;;;;;4.68;2.00;;;;;;;9.82;100.00;97360.03;4167123;28;20219;-49
2023/03/31 03:50:28;;;;;;;4.63;1.42;;;;;;;9.84;100.00;97361.38;4199254;28;20207;-49
2023/03/31 03:52:29;;;;;;;2.20;1.35;;;;;;;9.84;100.00;97357.81;4169052;28;20609;-48
2023/03/31 03:54:31;;;;;;;3.42;1.48;;;;;;;9.85;100.00;97351.25;4202842;28;20758;-48
2023/03/31 03:56:33;;;;;;;5.80;1.55;;;;;;;9.83;100.00;97350.72;4176367;28;20291;-48
2023/03/31 03:58:35;;;;;;;4.22;1.73;;;;;;;9.79;100.00;97360.56;4189498;28;20238;-48
2023/03/31 04:00:37;;;;;;;3.47;2.10;;;;;;;9.79;100.00;97366.84;4171494;28;20224;-48
2023/03/31 04:02:38;;;;;;;4.30;2.40;;;;;;;9.82;100.00;97376.41;4171224;28;20738;-48
2023/03/31 04:04:40;;;;;;;3.40;1.10;;;;;;;9.85;100.00;97362.19;4172726;28;20205;-48
2023/03/31 04:06:42;;;;;;;6.63;1.85;;;;;;;9.78;100.00;97367.09;4172155;28;20230;-48
2023/03/31 04:08:44;;;;;;;4.90;2.05;;;;;;;9.82;100.00;97370.94;4203008;28;20199;-48
2023/03/31 04:10:48;;;;;;;4.88;2.63;;;;;;;9.81;100.00;97359.19;4171342;28;20214;-48
2023/03/31 04:12:49;;;;;;;4.03;2.58;;;;;;;9.78;100.00;97356.19;4175811;28;20266;-49
2023/03/31 04:14:51;;;;;;;4.80;2.28;;;;;;;9.76;100.00;97350.19;4172410;28;20253;-50
2023/03/31 04:16:55;;;;;;;2.90;2.38;;;;;;;9.79;100.00;97349.63;4186547;28;20208;-49
2023/03/31 04:18:57;;;;;;;3.72;2.17;;;;;;;9.86;100.00;97367.38;4184821;28;20808;-49
2023/03/31 04:21:05;;;;;;;2.95;1.98;;;;;;;9.82;100.00;97351.81;4168752;28;20227;-48
2023/03/31 04:23:08;;;;;;;5.63;2.00;;;;;;;9.86;100.00;97351.00;4147983;28;20259;-51
2023/03/31 04:25:15;;;;;;;7.60;1.75;;;;;;;9.86;100.00;97352.91;4184675;28;20224;-49
2023/03/31 04:27:17;;;;;;;8.40;2.05;;;;;;;9.85;100.00;97345.78;4173779;28;20773;-48
2023/03/31 04:29:21;;;;;;;6.85;2.47;;;;;;;9.84;100.00;97335.97;4170235;28;20295;-48
2023/03/31 04:31:25;;;;;;;12.18;2.28;;;;;;;9.84;100.00;97335.97;4182928;28;20217;-48
2023/03/31 04:33:27;;;;;;;4.50;2.17;;;;;;;9.76;100.00;97339.25;4150966;28;20315;-48
2023/03/31 04:35:51;;;;;;;6.97;1.88;;;;;;;9.71;100.00;97336.50;4172893;28;20630;-48
2023/03/31 04:37:57;;;;;;;8.63;1.90;;;;;;;9.70;100.00;97334.88;4169605;28;20227;-47
2023/03/31 04:40:09;;;;;;;2.95;2.00;;;;;;;9.72;100.00;97332.69;4187134;28;20680;-48
2023/03/31 04:42:11;;;;;;;3.38;1.92;;;;;;;9.73;100.00;97334.31;4169323;28;20242;-48
2023/03/31 04:44:13;;;;;;;5.65;1.95;;;;;;;9.83;100.00;97320.66;4184633;28;20219;-47
2023/03/31 04:46:15;;;;;;;5.13;2.38;;;;;;;9.81;100.00;97325.59;4166661;28;20262;-49
2023/03/31 04:48:17;;;;;;;3.97;2.00;;;;;;;9.84;100.00;97311.38;4167132;28;20204;-47
2023/03/31 04:50:19;;;;;;;5.90;1.80;;;;;;;9.75;100.00;97308.38;4169368;28;20267;-50
2023/03/31 04:52:20;;;;;;;4.13;1.92;;;;;;;9.68;100.00;97304.31;4169567;28;20212;-48
2023/03/31 04:54:22;;;;;;;8.00;2.90;;;;;;;9.63;100.00;97307.03;4153998;28;20604;-47
2023/03/31 04:56:25;;;;;;;3.67;2.53;;;;;;;9.65;100.00;97299.38;4168739;28;20235;-48
2023/03/31 04:58:27;;;;;;;5.82;2.75;;;;;;;9.70;100.00;97297.47;4165542;28;20208;-48
2023/03/31 05:00:29;;;;;;;7.50;2.20;;;;;;;9.63;100.00;97282.44;4164461;28;20251;-48
2023/03/31 05:02:30;;;;;;;5.32;2.42;;;;;;;9.66;100.00;97285.44;4198974;28;20855;-49
2023/03/31 05:04:32;;;;;;;3.42;2.28;;;;;;;9.65;100.00;97278.34;4172890;28;20212;-48
2023/03/31 05:06:34;;;;;;;3.72;1.80;;;;;;;9.61;100.00;97265.53;4167918;28;20246;-48
2023/03/31 05:08:36;;;;;;;9.52;3.08;;;;;;;9.61;100.00;97265.53;4150915;28;20211;-48
2023/03/31 05:10:38;;;;;;;8.55;3.03;;;;;;;9.60;100.00;97253.78;4173487;28;20257;-49
2023/03/31 05:12:39;;;;;;;9.13;2.63;;;;;;;9.60;100.00;97237.38;4172183;28;20952;-48
2023/03/31 05:14:41;;;;;;;4.75;2.72;;;;;;;9.65;100.00;97233.81;4167940;28;20243;-49
2023/03/31 05:16:45;;;;;;;4.82;2.30;;;;;;;9.66;100.00;97224.53;4166665;28;20333;-50
2023/03/31 05:18:49;;;;;;;3.10;2.40;;;;;;;9.59;100.00;97222.09;4153716;28;20647;-51
2023/03/31 05:20:56;;;;;;;4.72;2.35;;;;;;;9.64;100.00;97215.81;4166815;28;20211;-51
2023/03/31 05:23:00;;;;;;;4.90;2.65;;;;;;;9.61;100.00;97205.44;4180558;28;20314;-51
2023/03/31 05:25:06;;;;;;;9.00;4.13;;;;;;;9.60;100.00;97199.16;4169134;28;20228;-49
2023/03/31 05:27:15;;;;;;;5.60;2.97;;;;;;;9.70;100.00;97185.50;4195977;28;20213;-50
2023/03/31 05:29:17;;;;;;;6.22;2.92;;;;;;;9.65;100.00;97165.56;4165894;28;20641;-49
2023/03/31 05:31:26;;;;;;;5.43;2.72;;;;;;;9.55;100.00;97136.34;4159830;28;20315;-49
2023/03/31 05:33:28;;;;;;;9.32;3.45;;;;;;;9.54;100.00;97128.47;4154255;28;20215;-48
2023/03/31 05:35:31;;;;;;;5.85;2.88;;;;;;;9.53;100.00;97118.63;4185835;28;20732;-48
2023/03/31 05:37:33;;;;;;;5.97;4.10;;;;;;;9.57;100.00;97106.06;4154032;28;20349;-49
2023/03/31 05:39:35;;;;;;;6.97;3.30;;;;;;;9.58;100.00;97104.94;4168492;28;20204;-48
2023/03/31 05:41:36;;;;;;;3.22;2.80;;;;;;;9.64;100.00;97099.22;4159568;28;20255;-48
2023/03/31 05:43:38;;;;;;;6.10;4.95;;;;;;;9.62;100.00;97100.59;4175720;28;20217;-48
2023/03/31 05:45:40;;;;;;;6.55;4.00;;;;;;;9.67;100.00;97103.31;4170361;28;20701;-48
2023/03/31 05:47:42;;;;;;;6.53;3.15;;;;;;;9.64;100.00;97103.84;4186352;28;20572;-49
2023/03/31 05:49:44;;;;;;;3.97;3.15;;;;;;;9.65;100.00;97103.56;4157613;28;20208;-49
2023/03/31 05:51:52;;;;;;;4.57;3.55;;;;;;;9.76;100.00;97096.16;4175079;28;20213;-48
2023/03/31 05:53:54;;;;;;;5.78;3.80;;;;;;;9.74;100.00;97101.09;4157221;28;20208;-48
2023/03/31 05:55:58;;;;;;;6.18;3.55;;;;;;;9.79;100.00;97095.56;4157707;28;20228;-50
2023/03/31 05:58:00;;;;;;;7.40;3.47;;;;;;;9.79;100.00;97090.13;4175987;28;20586;-49
2023/03/31 06:00:04;;;;;;;7.78;3.65;;;;;;;9.76;100.00;97087.97;4199588;28;20210;-51
2023/03/31 06:02:08;;;;;;;7.15;4.05;;;;;;;9.76;100.00;97099.69;4170112;28;20252;-49
2023/03/31 06:04:10;;;;;;;6.82;3.92;;;;;;;9.80;100.00;97110.88;4170957;28;20212;-49
2023/03/31 06:06:12;;;;;;;7.88;3.63;;;;;;;9.80;100.00;97094.47;4167634;28;20711;-49
2023/03/31 06:08:14;;;;;;;5.72;3.67;;;;;;;9.79;100.00;97088.22;4168928;28;20957;-50
2023/03/31 06:10:15;;;;;;;4.70;4.15;;;;;;;9.86;100.00;97093.38;4168155;28;20240;-50
2023/03/31 06:12:17;;;;;;;4.60;3.90;;;;;;;9.87;100.00;97078.63;4167408;28;20212;-50
2023/03/31 06:14:19;;;;;;;5.57;4.47;;;;;;;9.95;100.00;97086.22;4172909;28;20236;-49
2023/03/31 06:16:21;;;;;;;4.30;3.70;;;;;;;10.00;100.00;97089.75;4172115;28;20787;-50
2023/03/31 06:18:23;;;;;;;7.35;3.63;;;;;;;10.00;100.00;97095.22;4187994;28;20736;-50
2023/03/31 06:20:25;;;;;;;14.10;3.97;;;;;;;10.05;100.00;97094.41;4167440;28;20231;-50
2023/03/31 06:22:29;;;;;;;6.78;3.90;;;;;;;10.10;100.00;97095.22;4174273;28;20361;-51
2023/03/31 06:24:30;;;;;;;4.30;3.70;;;;;;;10.24;100.00;97095.38;4170778;28;20274;-50
2023/03/31 06:26:32;;;;;;;4.88;3.65;;;;;;;10.26;100.00;97101.38;4157310;28;20261;-49
2023/03/31 06:28:34;;;;;;;9.38;3.25;;;;;;;10.26;100.00;97095.91;4152598;28;20295;-49
2023/03/31 06:30:37;;;;;;;6.30;4.30;;;;;;;10.26;100.00;97106.84;4168199;28;20215;-50
2023/03/31 06:32:39;;;;;;;6.45;3.67;;;;;;;10.30;100.00;97102.47;4175297;28;20295;-49
2023/03/31 06:34:41;;;;;;;6.93;3.83;;;;;;;10.31;100.00;97106.81;4169675;28;20214;-51
2023/03/31 06:36:43;;;;;;;7.15;4.68;;;;;;;10.33;100.00;97088.22;4169269;28;20208;-51
2023/03/31 06:38:49;;;;;;;8.80;5.15;;;;;;;10.31;100.00;97095.88;4153246;28;20293;-51
2023/03/31 06:40:52;;;;;;;4.80;4.32;;;;;;;10.30;100.00;97089.63;4192648;28;20220;-50
2023/03/31 06:43:02;;;;;;;5.63;3.65;;;;;;;10.33;100.00;97090.94;4153239;28;20671;-50
2023/03/31 06:45:04;;;;;;;5.07;3.53;;;;;;;10.40;100.00;97105.94;4171353;28;20228;-51
2023/03/31 06:47:06;;;;;;;5.68;3.47;;;;;;;10.44;100.00;97109.75;4169114;28;20258;-49
2023/03/31 06:49:09;;;;;;;7.68;4.57;;;;;;;10.45;100.00;97108.66;4166876;28;20204;-50
2023/03/31 06:51:15;;;;;;;10.70;3.67;;;;;;;10.53;100.00;97093.53;4181595;28;20227;-48
2023/03/31 06:53:26;;;;;;;12.90;5.05;;;;;;;10.57;100.00;97089.16;4183773;28;20207;-48
2023/03/31 06:55:28;;;;;;;7.03;3.95;;;;;;;10.59;100.00;97100.63;4170565;28;20293;-49
2023/03/31 06:57:32;;;;;;;6.28;4.10;;;;;;;10.60;100.00;97094.88;4171900;28;20262;-51
2023/03/31 06:59:35;;;;;;;5.85;4.38;;;;;;;10.68;100.00;97104.41;4177220;28;20302;-47
2023/03/31 07:01:37;;;;;;;8.32;3.95;;;;;;;10.71;100.00;97109.28;4189056;28;20232;-48
2023/03/31 07:03:46;;;;;;;15.38;4.25;;;;;;;10.73;100.00;97094.22;4191162;28;20258;-47
2023/03/31 07:05:49;;;;;;;8.05;3.45;;;;;;;10.74;100.00;97097.78;4173654;28;20235;-48
2023/03/31 07:07:55;;;;;;;4.43;3.08;;;;;;;10.77;100.00;97100.78;4169925;28;20305;-49
2023/03/31 07:09:57;;;;;;;11.60;5.30;;;;;;;10.78;100.00;97094.19;4172319;28;20208;-47
2023/03/31 07:12:00;;;;;;;6.68;4.40;;;;;;;10.77;100.00;97098.03;4174033;28;20262;-47
2023/03/31 07:14:02;;;;;;;5.88;4.20;;;;;;;10.79;100.00;97088.41;4162567;28;20209;-47
2023/03/31 07:16:22;;;;;;;8.30;4.35;;;;;;;10.84;100.00;97082.91;4184282;28;20224;-47
2023/03/31 07:18:30;;;;;;;6.28;3.72;;;;;;;10.88;100.00;97086.72;4156601;28;20205;-47
2023/03/31 07:20:36;;;;;;;5.18;3.65;;;;;;;10.81;100.00;97092.81;4172151;28;20323;-49
2023/03/31 07:22:48;;;;;;;11.07;4.80;;;;;;;10.87;100.00;97094.41;4178238;28;20303;-47
2023/03/31 07:25:08;;;;;;;5.53;3.58;;;;;;;10.93;100.00;97099.53;4205235;28;20218;-47
2023/03/31 07:27:10;;;;;;;7.72;4.00;;;;;;;10.95;100.00;97089.94;4170394;28;20212;-47
2023/03/31 07:29:12;;;;;;;8.38;4.13;;;;;;;11.01;100.00;97107.13;4186231;28;20678;-49
2023/03/31 07:31:21;;;;;;;4.68;3.40;;;;;;;10.98;100.00;97102.22;4176849;28;20200;-47
2023/03/31 07:33:31;;;;;;;12.05;4.13;;;;;;;10.95;100.00;97087.19;4204998;28;20195;-46
2023/03/31 07:35:37;;;;;;;7.57;4.00;;;;;;;10.98;100.00;97108.50;4173818;28;20227;-46
2023/03/31 07:37:42;;;;;;;8.32;3.15;;;;;;;10.91;100.00;97108.00;4171362;28;20674;-48
2023/03/31 07:39:44;;;;;;;8.20;3.65;;;;;;;10.84;100.00;97115.75;4171023;28;20211;-47
2023/03/31 07:41:55;;;;;;;8.20;3.40;;;;;;;10.69;100.00;97097.81;4188116;28;20315;-48
2023/03/31 07:44:00;;;;;;;4.05;2.33;;;;;;;10.41;100.00;97090.38;4172371;28;20282;-48
2023/03/31 07:46:07;;;;;;;4.63;2.53;;;;;;;10.31;100.00;97104.09;4172055;28;20311;-50
2023/03/31 07:48:09;;;;;;;4.57;2.28;;;;;;;10.21;100.00;97113.16;4195751;28;20211;-48
2023/03/31 07:50:21;;;;;;;6.60;1.88;;;;;;;10.06;100.00;97115.16;4185577;28;20467;-47
2023/03/31 07:52:23;;;;;;;5.88;2.08;;;;;;;10.01;100.00;97102.31;4178610;28;20301;-48
2023/03/31 07:54:32;;;;;;;4.47;3.05;;;;;;;10.00;100.00;97110.78;4191061;28;20203;-48
2023/03/31 07:56:34;;;;;;;3.67;2.22;;;;;;;10.02;100.00;97097.69;4185694;28;20658;-50
2023/03/31 07:58:45;;;;;;;7.50;2.03;;;;;;;10.08;100.00;97107.50;4159520;28;21863;-48
2023/03/31 08:00:48;;;;;;;2.90;1.88;;;;;;;10.04;100.00;97099.06;4170827;28;20443;-48
2023/03/31 08:02:56;;;;;;;6.97;2.72;;;;;;;10.11;100.00;97096.84;4173050;28;20228;-48
2023/03/31 08:05:01;;;;;;;7.43;2.75;;;;;;;10.04;100.00;97095.50;4176973;28;20231;-48
2023/03/31 08:07:11;;;;;;;7.05;3.50;;;;;;;10.08;100.00;97118.44;4170358;28;20222;-47
2023/03/31 08:09:14;;;;;;;5.43;2.58;;;;;;;10.13;100.00;97115.66;4160790;28;20208;-47
2023/03/31 08:11:16;;;;;;;3.65;3.08;;;;;;;10.09;100.00;97103.69;4187236;28;20258;-48
2023/03/31 08:13:18;;;;;;;6.30;3.25;;;;;;;10.22;100.00;97097.59;4165374;28;20244;-47
2023/03/31 08:15:20;;;;;;;6.43;3.20;;;;;;;10.31;100.00;97095.88;4171660;28;20291;-46
2023/03/31 08:17:22;;;;;;;6.68;4.05;;;;;;;10.43;100.00;97082.69;4170289;28;20239;-47
2023/03/31 08:19:24;;;;;;;9.30;4.00;;;;;;;10.74;100.00;97064.97;4176320;28;20583;-48
2023/03/31 08:21:27;;;;;;;5.78;3.80;;;;;;;10.72;100.00;97056.19;4152761;28;20320;-48
2023/03/31 08:23:29;;;;;;;9.98;3.72;;;;;;;10.68;100.00;97052.41;4169198;28;20300;-47
2023/03/31 08:25:30;;;;;;;6.55;3.78;;;;;;;10.67;100.00;97053.53;4168603;28;20255;-48
2023/03/31 08:27:37;;;;;;;7.55;3.35;;;;;;;10.65;100.00;97047.50;4175868;28;20239;-47
2023/03/31 08:29:39;;;;;;;7.05;4.55;;;;;;;10.65;100.00;97048.34;4170219;28;20258;-49
2023/03/31 08:31:41;;;;;;;8.80;3.70;;;;;;;10.64;100.00;97045.88;4172863;28;20295;-47
2023/03/31 08:33:43;;;;;;;7.68;3.42;;;;;;;10.77;100.00;97041.38;4171326;28;20212;-47
2023/03/31 08:35:45;;;;;;;5.60;3.60;;;;;;;10.76;100.00;97038.91;4172361;28;20356;-47
2023/03/31 08:37:47;;;;;;;6.75;2.78;;;;;;;10.67;100.00;97048.06;4190416;28;20578;-47
2023/03/31 08:39:53;;;;;;;11.38;3.17;;;;;;;10.65;100.00;97052.97;4169245;28;21176;-49
2023/03/31 08:42:11;;;;;;;13.35;3.85;;;;;;;10.59;100.00;97059.59;4170764;28;20266;-48
2023/03/31 08:44:41;;;;;;;15.57;3.50;;;;;;;10.65;100.00;97088.53;4168164;28;20209;-46
2023/03/31 08:46:43;;;;;;;6.55;3.22;;;;;;;10.60;100.00;97110.44;4161924;28;20239;-47
2023/03/31 08:48:55;;;;;;;6.93;2.50;;;;;;;10.46;100.00;97123.13;4176823;28;20250;-48
2023/03/31 08:51:02;;;;;;;8.30;2.50;;;;;;;10.15;100.00;97108.03;4176047;28;20581;-48
2023/03/31 08:53:07;;;;;;;6.57;2.78;;;;;;;9.93;100.00;97119.28;4200930;28;20641;-47
2023/03/31 08:55:21;;;;;;;5.97;2.55;;;;;;;9.71;100.00;97112.56;4177456;28;20235;-47
2023/03/31 08:57:26;;;;;;;3.58;1.92;;;;;;;9.57;100.00;97114.25;4203502;28;20243;-47
2023/03/31 08:59:34;;;;;;;5.05;2.15;;;;;;;9.55;100.00;97121.91;4154269;28;20218;-47
2023/03/31 09:02:06;;;;;;;5.03;2.10;;;;;;;9.45;100.00;97114.56;4175623;28;20230;-48
2023/03/31 09:04:27;;;;;;;4.35;2.63;;;;;;;9.44;100.00;97123.00;4169960;28;20573;-47
2023/03/31 09:07:11;;;;;;;4.65;2.05;;;;;;;9.46;100.00;97132.56;4169279;28;20233;-48
2023/03/31 09:09:27;;;;;;;7.38;2.30;;;;;;;9.45;100.00;97122.75;4167313;28;20215;-48
2023/03/31 09:11:38;;;;;;;4.10;1.67;;;;;;;9.47;100.00;97130.63;4178091;28;20658;-48
2023/03/31 09:13:49;;;;;;;5.03;2.10;;;;;;;9.45;100.00;97111.81;4173124;28;20645;-48
2023/03/31 09:16:03;;;;;;;4.55;2.00;;;;;;;9.42;100.00;97098.72;4169340;28;20349;-47
2023/03/31 09:18:36;;;;;;;5.03;3.00;;;;;;;9.47;100.00;97073.31;4170821;28;20207;-47
2023/03/31 09:20:39;;;;;;;5.75;2.13;;;;;;;9.51;100.00;97079.84;4169698;28;20346;-47
2023/03/31 09:23:10;;;;;;;12.70;1.98;;;;;;;9.39;100.00;97103.91;4176761;28;20298;-47
2023/03/31 09:25:14;;;;;;;4.55;1.55;;;;;;;9.29;100.00;97082.13;4146063;28;20323;-47
2023/03/31 09:27:17;;;;;;;2.58;1.63;;;;;;;9.21;100.00;97085.41;4176073;28;20207;-46
2023/03/31 09:29:42;;;;;;;7.28;2.58;;;;;;;9.16;100.00;97078.03;4167999;28;20287;-47
2023/03/31 09:31:45;;;;;;;5.00;1.85;;;;;;;9.25;100.00;97081.03;4130317;28;20217;-48
2023/03/31 09:33:50;;;;;;;6.80;1.83;;;;;;;9.36;100.00;97075.25;4167538;28;20239;-49
2023/03/31 09:35:52;;;;;;;5.10;1.42;;;;;;;9.50;100.00;97073.59;4168111;28;20274;-47
2023/03/31 09:37:54;;;;;;;8.50;2.20;;;;;;;9.51;100.00;97058.00;4169721;28;20727;-47
2023/03/31 09:39:58;;;;;;;5.15;2.53;;;;;;;9.65;100.00;97072.69;4176566;28;20299;-47
2023/03/31 09:42:00;;;;;;;8.38;2.72;;;;;;;9.71;100.00;97060.66;4169759;28;20224;-47
2023/03/31 09:44:02;;;;;;;6.07;2.90;;;;;;;9.86;100.00;97050.47;4173133;28;20302;-47
2023/03/31 09:46:12;;;;;;;6.90;2.53;;;;;;;10.12;100.00;97041.06;4171424;28;20339;-47
2023/03/31 09:48:18;;;;;;;5.30;1.88;;;;;;;10.24;100.00;97043.44;4168426;28;20619;-48
2023/03/31 09:50:21;;;;;;;6.05;2.63;;;;;;;10.50;100.00;97033.97;4169766;28;20235;-47
2023/03/31 09:52:29;;;;;;;5.22;2.50;;;;;;;10.77;100.00;97030.44;4151746;28;20284;-47
2023/03/31 09:54:37;;;;;;;5.47;2.30;;;;;;;10.87;100.00;97043.22;4176976;28;20228;-47